Time;durP1;ratioP1;P1;durP2;ratioP2;P2;SDS_P1;SDS_P2;PMS_P1;PMS_P2;Temp;Humidity;BMP_temperature;BMP_pressure;BME280_temperature;BME280_humidity;BME280_pressure;Samples;Min_cycle;Max_cycle;Signal;HPM_P1;HPM_P2
2022/02/10 00:17:15;;;;;;;;;;;;;;;6.62;100.00;99376.34;5111625;28;19977;-78
2022/02/10 00:34:50;;;;;;;;;;;;;;;6.62;100.00;99365.25;5109946;28;20287;-78
2022/02/10 00:37:24;;;;;;;;;;;;;;;6.54;100.00;99358.84;5109909;28;19924;-78
2022/02/10 00:40:11;;;;;;;;;;;;;;;6.75;100.00;99335.94;5111161;28;19977;-78
2022/02/10 00:42:38;;;;;;;;;;;;;;;6.48;100.00;99348.50;5109670;28;19924;-78
2022/02/10 00:45:06;;;;;;;;;;;;;;;6.36;100.00;99346.06;5110874;28;19935;-78
2022/02/10 00:47:47;;;;;;;;;;;;;;;6.24;100.00;99355.50;5109829;28;19924;-78
2022/02/10 00:50:14;;;;;;;;;;;;;;;6.50;100.00;99351.66;5111081;28;19961;-78
2022/02/10 00:52:43;;;;;;;;;;;;;;;6.43;100.00;99346.09;5110187;28;19924;-78
2022/02/10 00:55:13;;;;;;;;;;;;;;;6.49;100.00;99350.09;5107587;28;19924;-78
2022/02/10 00:57:40;;;;;;;;;;;;;;;6.41;100.00;99338.16;5092077;28;20010;-78
2022/02/10 01:14:06;;;;;;;;;;;;;;;6.30;100.00;99339.31;5110285;28;19924;-78
2022/02/10 01:30:14;;;;;;;;;;;;;;;6.14;100.00;99334.06;5095392;28;19946;-77
2022/02/10 01:32:46;;;;;;;;;;;;;;;6.05;100.00;99321.69;5096615;28;20072;-78
2022/02/10 01:35:19;;;;;;;;;;;;;;;5.91;100.00;99335.50;5078417;28;20009;-77
2022/02/10 01:37:46;;;;;;;;;;;;;;;6.10;100.00;99335.22;5078307;28;20367;-78
2022/02/10 01:40:24;;;;;;;;;;;;;;;6.07;100.00;99333.22;5095020;28;20023;-78
2022/02/10 02:04:42;;;;;;;;;;;;;;;6.05;100.00;99341.13;5107809;28;19931;-78
2022/02/10 02:07:10;;;;;;;;;;;;;;;5.85;100.00;99348.91;5098207;28;19923;-78
2022/02/10 02:09:37;;;;;;;;;;;;;;;5.67;100.00;99347.16;5097946;28;20244;-78
2022/02/10 02:12:08;;;;;;;;;;;;;;;5.99;100.00;99353.75;5116254;28;20359;-78
2022/02/10 02:14:36;;;;;;;;;;;;;;;6.04;100.00;99345.09;5081102;28;19927;-77
2022/02/10 02:17:05;;;;;;;;;;;;;;;6.14;100.00;99338.78;5116025;28;19924;-78
2022/02/10 02:19:32;;;;;;;;;;;;;;;5.70;100.00;99352.72;5097785;28;19934;-78
2022/02/10 02:22:05;;;;;;;;;;;;;;;5.90;100.00;99339.44;5081234;28;19946;-77
2022/02/10 02:24:33;;;;;;;;;;;;;;;5.74;100.00;99352.78;5097441;28;19928;-78
2022/02/10 02:27:03;;;;;;;;;;;;;;;5.81;100.00;99352.81;5096810;28;20311;-78
2022/02/10 02:29:36;;;;;;;;;;;;;;;5.74;100.00;99345.22;5097538;28;19969;-78
2022/02/10 02:32:10;;;;;;;;;;;;;;;5.76;100.00;99356.75;5115900;28;19949;-77
2022/02/10 03:04:50;;;;;;;;;;;;;;;6.03;100.00;99347.06;5115090;28;19924;-78
2022/02/10 03:12:36;;;;;;;;;;;;;;;5.99;100.00;99337.13;5115149;28;19924;-77
2022/02/10 03:15:08;;;;;;;;;;;;;;;5.70;100.00;99335.28;5114579;28;19967;-77
2022/02/10 03:20:21;;;;;;;;;;;;;;;5.75;100.00;99343.25;5079697;28;20026;-78
2022/02/10 04:14:47;;;;;;;;;;;;;;;5.23;100.00;99328.59;5051358;28;20389;-78
2022/02/10 04:31:11;;;;;;;;;;;;;;;5.12;100.00;99327.69;4994907;28;19954;-77
2022/02/10 05:33:06;;;;;;;;;;;;;;;4.88;100.00;99308.03;5037164;28;20008;-77
2022/02/10 05:35:41;;;;;;;;;;;;;;;4.93;100.00;99297.44;5035902;28;20416;-77
2022/02/10 05:54:27;;;;;;;;;;;;;;;4.60;100.00;99289.16;5040569;28;19929;-77
2022/02/10 05:57:46;;;;;;;;;;;;;;;4.76;100.00;99286.97;5053368;28;20364;-77
2022/02/10 06:49:36;;;;;;;;;;;;;;;4.19;100.00;99276.41;5097314;28;20248;-77
2022/02/10 06:52:13;;;;;;;;;;;;;;;4.32;100.00;99283.28;5097348;28;20425;-77
2022/02/10 06:58:11;;;;;;;;;;;;;;;4.13;100.00;99277.13;5097230;28;20417;-77
2022/02/10 07:58:04;;;;;;;;;;;;;;;4.14;100.00;99287.81;5106950;28;20418;-78
2022/02/10 08:01:01;;;;;;;;;;;;;;;4.23;100.00;99291.09;5079236;28;19928;-78
2022/02/10 08:56:08;;;;;;;;;;;;;;;4.82;100.00;99284.63;5074637;28;19978;-78
2022/02/10 10:01:20;;;;;;;;;;;;;;;4.77;100.00;99316.22;5113624;28;20026;-82
2022/02/10 10:04:01;;;;;;;;;;;;;;;4.95;100.00;99305.34;5113439;28;20306;-78
2022/02/10 10:07:04;;;;;;;;;;;;;;;4.89;100.00;99312.41;5079829;28;20424;-79
2022/02/10 10:15:04;;;;;;;;;;;;;;;5.32;100.00;99309.66;5093737;28;19951;-79
2022/02/10 10:20:25;;;;;;;;;;;;;;;5.30;100.00;99306.47;5077994;28;20019;-81
2022/02/10 10:23:19;;;;;;;;;;;;;;;5.43;100.00;99304.22;5112751;28;19933;-87
2022/02/10 10:50:35;;;;;;;;;;;;;;;5.02;100.00;99328.38;5112559;28;19977;-82
2022/02/10 10:55:52;;;;;;;;;;;;;;;5.16;100.00;99314.66;5113065;28;19932;-83
2022/02/10 11:38:11;;;;;;;;;;;;;;;5.50;100.00;99377.13;5072617;28;20397;-84
2022/02/10 11:41:07;;;;;;;;;;;;;;;5.74;100.00;99380.50;5093524;28;20010;-83
2022/02/10 11:43:46;;;;;;;;;;;;;;;5.43;100.00;99382.59;5111876;28;19924;-82
2022/02/10 11:46:57;;;;;;;;;;;;;;;5.65;100.00;99391.13;5076979;28;19923;-81
2022/02/10 12:42:12;;;;;;;;;;;;;;;6.80;100.00;99318.91;5042194;28;20443;-79
2022/02/10 13:29:20;;;;;;;;;;;;;;;7.20;100.00;99319.38;5096491;28;19931;-80
2022/02/10 14:09:08;;;;;;;;;;;;;;;8.05;100.00;99297.88;5111505;28;19928;-78
2022/02/10 14:29:11;;;;;;;;;;;;;;;6.39;100.00;99307.22;5103487;28;19924;-81
2022/02/10 14:31:39;;;;;;;;;;;;;;;6.67;100.00;99314.88;5082591;28;19935;-80
2022/02/10 14:34:07;;;;;;;;;;;;;;;6.68;100.00;99314.47;5075698;28;19924;-81
2022/02/10 14:36:44;;;;;;;;;;;;;;;6.49;100.00;99306.47;5079931;28;19946;-81
2022/02/10 16:14:40;;;;;;;;;;;;;;;5.92;100.00;99315.69;5094556;28;20364;-79
2022/02/10 16:19:20;;;;;;;;;;;;;;;6.09;100.00;99315.00;5092619;28;20476;-79
2022/02/10 16:22:01;;;;;;;;;;;;;;;5.89;100.00;99304.56;5100694;28;20014;-79
2022/02/10 16:24:49;;;;;;;;;;;;;;;6.02;100.00;99319.69;5076172;28;19924;-79
2022/02/10 16:27:26;;;;;;;;;;;;;;;5.99;100.00;99326.03;5106697;28;20002;-80
2022/02/10 16:30:00;;;;;;;;;;;;;;;5.91;100.00;99313.31;5107592;28;19931;-79
2022/02/10 16:32:32;;;;;;;;;;;;;;;5.81;100.00;99316.75;5076708;28;20256;-79
2022/02/10 16:35:03;;;;;;;;;;;;;;;5.79;100.00;99324.66;5096666;28;19924;-80
2022/02/10 16:37:36;;;;;;;;;;;;;;;5.84;100.00;99335.44;5063059;28;20011;-80
2022/02/10 16:40:09;;;;;;;;;;;;;;;5.22;100.00;99331.72;5094704;28;20018;-80
2022/02/10 16:42:40;;;;;;;;;;;;;;;5.16;100.00;99331.28;5093697;28;20397;-79
2022/02/10 16:45:08;;;;;;;;;;;;;;;5.09;100.00;99322.91;5112295;28;20447;-79
2022/02/10 16:47:40;;;;;;;;;;;;;;;5.13;100.00;99317.41;5094146;28;20371;-79
2022/02/10 16:50:12;;;;;;;;;;;;;;;5.09;100.00;99306.28;5096858;28;19970;-79
2022/02/10 16:52:49;;;;;;;;;;;;;;;5.34;100.00;99301.78;5101479;28;19924;-79
2022/02/10 16:58:06;;;;;;;;;;;;;;;5.15;100.00;99335.22;5099156;28;19959;-79
2022/02/10 17:20:00;;;;;;;;;;;;;;;5.03;100.00;99368.72;5099192;28;19928;-79
2022/02/10 17:25:23;;;;;;;;;;;;;;;5.00;100.00;99363.94;5117097;28;19967;-79
2022/02/10 17:27:55;;;;;;;;;;;;;;;4.89;100.00;99363.03;5111218;28;19924;-79
2022/02/10 17:31:04;;;;;;;;;;;;;;;4.94;100.00;99372.97;5113881;28;19923;-80
2022/02/10 17:33:52;;;;;;;;;;;;;;;4.85;100.00;99366.94;5061703;28;19923;-78
2022/02/10 17:44:49;;;;;;;;;;;;;;;4.52;100.00;99408.44;5128340;27;19928;-78
2022/02/10 17:53:01;;;;;;;;;;;;;;;4.40;100.00;99423.31;5125683;27;20048;-79
2022/02/10 17:55:28;;;;;;;;;;;;;;;4.30;100.00;99407.34;5109769;27;19931;-83
2022/02/10 17:57:56;;;;;;;;;;;;;;;4.44;100.00;99429.69;5115580;27;19931;-82
2022/02/10 18:00:25;;;;;;;;;;;;;;;4.51;100.00;99418.72;5081127;28;19928;-80
2022/02/10 18:02:58;;;;;;;;;;;;;;;4.82;100.00;99440.47;5122309;27;19923;-79
2022/02/10 18:06:00;;;;;;;;;;;;;;;4.91;100.00;99443.75;5114846;27;19924;-79
2022/02/10 18:08:16;;;;;;;;;;;;;;;4.83;100.00;99453.13;5111811;28;19934;-80
2022/02/10 18:16:16;;;;;;;;;;;;;;;5.03;100.00;99459.31;5115831;27;20356;-79
2022/02/10 18:18:51;;;;;;;;;;;;;;;4.74;100.00;99466.47;5125879;27;19923;-79
2022/02/10 18:24:18;;;;;;;;;;;;;;;4.95;100.00;99468.72;5128955;27;19934;-79
2022/02/10 18:29:32;;;;;;;;;;;;;;;4.90;100.00;99472.63;5097701;27;19930;-79
2022/02/10 19:08:19;;;;;;;;;;;;;;;5.24;100.00;99523.31;5011822;28;20027;-79
2022/02/10 19:10:48;;;;;;;;;;;;;;;5.30;100.00;99550.28;4994690;28;19925;-79
2022/02/10 19:13:17;;;;;;;;;;;;;;;5.29;100.00;99553.44;5096342;28;19924;-80
2022/02/10 19:15:45;;;;;;;;;;;;;;;5.17;100.00;99546.19;5059908;28;19931;-80
2022/02/10 19:18:12;;;;;;;;;;;;;;;5.47;100.00;99566.34;5072489;28;19947;-80
2022/02/10 19:20:42;;;;;;;;;;;;;;;5.32;100.00;99544.38;5088009;28;19924;-81
2022/02/10 19:23:32;;;;;;;;;;;;;;;5.14;100.00;99555.25;5096869;28;19951;-80
2022/02/10 19:25:59;;;;;;;;;;;;;;;5.14;100.00;99524.78;5115216;28;19924;-81
2022/02/10 19:28:27;;;;;;;;;;;;;;;5.18;100.00;99552.53;5096836;28;19931;-81
2022/02/10 19:30:55;;;;;;;;;;;;;;;5.23;100.00;99569.59;5063523;28;20294;-81
2022/02/10 19:33:23;;;;;;;;;;;;;;;5.22;100.00;99565.25;5080187;28;19959;-80
2022/02/10 19:35:52;;;;;;;;;;;;;;;5.51;100.00;99563.63;5115053;28;19928;-80
2022/02/10 19:38:22;;;;;;;;;;;;;;;5.47;100.00;99569.13;5115106;28;19924;-81
2022/02/10 19:40:52;;;;;;;;;;;;;;;5.53;100.00;99578.69;5080052;28;19923;-80
2022/02/10 19:43:20;;;;;;;;;;;;;;;5.36;100.00;99582.03;5115261;28;19931;-80
2022/02/10 19:45:49;;;;;;;;;;;;;;;5.27;100.00;99577.97;5114903;28;19930;-81
2022/02/10 19:48:16;;;;;;;;;;;;;;;5.25;100.00;99563.69;5095154;28;19930;-79
2022/02/10 19:50:44;;;;;;;;;;;;;;;5.22;100.00;99587.41;5091985;28;19930;-81
2022/02/10 19:53:14;;;;;;;;;;;;;;;5.32;100.00;99591.47;5094966;27;19930;-79
2022/02/10 19:55:46;;;;;;;;;;;;;;;5.34;100.00;99595.50;5117714;27;19928;-79
2022/02/10 19:58:19;;;;;;;;;;;;;;;5.28;100.00;99598.97;5095526;28;19947;-81
2022/02/10 20:00:47;;;;;;;;;;;;;;;5.24;100.00;99589.81;5124944;27;20427;-79
2022/02/10 20:03:20;;;;;;;;;;;;;;;5.44;100.00;99611.44;5114176;28;20358;-81
2022/02/10 20:05:48;;;;;;;;;;;;;;;5.33;100.00;99616.06;5081126;27;20358;-82
2022/02/10 20:08:17;;;;;;;;;;;;;;;5.38;100.00;99623.22;5083412;28;19931;-82
2022/02/10 20:10:44;;;;;;;;;;;;;;;5.30;100.00;99633.44;5091060;28;19928;-81
2022/02/10 20:13:16;;;;;;;;;;;;;;;5.39;100.00;99647.81;5087943;28;19924;-82
2022/02/10 20:15:44;;;;;;;;;;;;;;;5.52;100.00;99665.00;5111750;28;20562;-82
2022/02/10 20:18:13;;;;;;;;;;;;;;;5.45;100.00;99653.84;5110752;28;19924;-80
2022/02/10 20:20:45;;;;;;;;;;;;;;;5.63;100.00;99665.97;5111405;28;19949;-81
2022/02/10 20:23:14;;;;;;;;;;;;;;;5.32;100.00;99667.13;5112818;28;19931;-77
2022/02/10 20:25:53;;;;;;;;;;;;;;;5.60;100.00;99673.03;5117730;28;19931;-77
2022/02/10 20:28:22;;;;;;;;;;;;;;;5.73;100.00;99679.16;5118210;28;19924;-77
2022/02/10 20:30:49;;;;;;;;;;;;;;;5.72;100.00;99687.84;5082900;28;20418;-77
2022/02/10 20:33:18;;;;;;;;;;;;;;;5.51;100.00;99686.38;5083237;28;19970;-77
2022/02/10 20:35:49;;;;;;;;;;;;;;;5.37;100.00;99680.66;5118405;28;20289;-77
2022/02/10 20:38:19;;;;;;;;;;;;;;;5.26;100.00;99670.56;5083217;28;19931;-78
2022/02/10 20:40:54;;;;;;;;;;;;;;;5.42;100.00;99676.75;5118283;28;19924;-77
2022/02/10 20:43:21;;;;;;;;;;;;;;;5.53;100.00;99672.94;5100078;28;20335;-77
2022/02/10 20:45:55;;;;;;;;;;;;;;;5.44;100.00;99680.75;5082925;28;19971;-77
2022/02/10 20:48:24;;;;;;;;;;;;;;;5.47;100.00;99693.84;5117810;28;19927;-77
2022/02/10 20:50:56;;;;;;;;;;;;;;;5.42;100.00;99694.16;5099943;28;20022;-77
2022/02/10 20:53:30;;;;;;;;;;;;;;;5.62;100.00;99716.22;5082889;28;19980;-76
2022/02/10 20:55:59;;;;;;;;;;;;;;;5.53;100.00;99722.84;5099883;28;19984;-77
2022/02/10 20:58:28;;;;;;;;;;;;;;;5.45;100.00;99695.41;5082927;28;19959;-77
2022/02/10 21:00:58;;;;;;;;;;;;;;;5.44;100.00;99733.41;5099545;28;19989;-77
2022/02/10 21:03:28;;;;;;;;;;;;;;;5.55;100.00;99745.47;5082777;28;19932;-77
2022/02/10 21:06:07;;;;;;;;;;;;;;;5.48;100.00;99728.69;5099425;28;20282;-77
2022/02/10 21:11:10;;;;;;;;;;;;;;;5.55;100.00;99719.69;5117944;28;19955;-76
2022/02/10 21:13:38;;;;;;;;;;;;;;;5.44;100.00;99719.53;5095436;28;20011;-76
2022/02/10 21:16:05;;;;;;;;;;;;;;;5.59;100.00;99724.13;5078838;28;19935;-76
2022/02/10 21:18:34;;;;;;;;;;;;;;;5.52;100.00;99721.25;5066854;28;19928;-76
2022/02/10 21:21:06;;;;;;;;;;;;;;;5.52;100.00;99718.47;5099347;28;19949;-77
2022/02/10 21:24:00;;;;;;;;;;;;;;;5.30;100.00;99724.09;5081816;28;20364;-76
2022/02/10 21:26:26;;;;;;;;;;;;;;;5.58;100.00;99730.84;5098944;28;19951;-77
2022/02/10 21:28:58;;;;;;;;;;;;;;;5.47;100.00;99743.75;5117121;28;19924;-75
2022/02/10 21:31:25;;;;;;;;;;;;;;;5.33;100.00;99735.22;5117061;28;20014;-76
2022/02/10 21:39:52;;;;;;;;;;;;;;;5.32;100.00;99750.25;5099132;28;20402;-83
2022/02/10 22:19:19;;;;;;;;;;;;;;;5.43;100.00;99825.25;4981159;28;19925;-86
2022/02/10 22:21:57;;;;;;;;;;;;;;;5.49;100.00;99819.03;4981216;28;19932;-87
2022/02/10 22:24:29;;;;;;;;;;;;;;;5.40;100.00;99817.66;5045691;28;20338;-86
2022/02/10 22:26:56;;;;;;;;;;;;;;;5.49;100.00;99818.22;5061250;28;20016;-87
2022/02/10 22:29:31;;;;;;;;;;;;;;;5.46;100.00;99839.16;5094241;28;19924;-87
2022/02/10 22:34:36;;;;;;;;;;;;;;;5.49;100.00;99821.78;5081894;28;19924;-84
2022/02/10 22:37:08;;;;;;;;;;;;;;;5.37;100.00;99824.75;5097396;28;20284;-86
2022/02/10 22:39:43;;;;;;;;;;;;;;;5.44;100.00;99821.28;5107685;28;19931;-84
2022/02/10 22:42:10;;;;;;;;;;;;;;;5.38;100.00;99812.50;5094303;28;20015;-85
2022/02/10 22:44:38;;;;;;;;;;;;;;;5.53;100.00;99833.72;5074973;28;19930;-81
2022/02/10 22:47:06;;;;;;;;;;;;;;;5.39;100.00;99824.38;5097483;28;19924;-83
2022/02/10 22:49:33;;;;;;;;;;;;;;;5.47;100.00;99829.66;5097673;28;19985;-83
2022/02/10 22:52:01;;;;;;;;;;;;;;;5.35;100.00;99835.41;5064061;28;19924;-84
2022/02/10 22:54:28;;;;;;;;;;;;;;;5.33;100.00;99825.88;5098384;28;19924;-83
2022/02/10 22:56:56;;;;;;;;;;;;;;;5.32;100.00;99825.06;5080082;28;20390;-83
2022/02/10 22:59:23;;;;;;;;;;;;;;;5.37;100.00;99838.63;5097354;28;19924;-84
2022/02/10 23:01:55;;;;;;;;;;;;;;;5.34;100.00;99836.59;5115719;28;19963;-83
2022/02/10 23:04:22;;;;;;;;;;;;;;;5.51;100.00;99854.69;5115765;28;19924;-83
2022/02/10 23:06:57;;;;;;;;;;;;;;;5.33;100.00;99848.03;5043934;28;20007;-84
2022/02/10 23:09:30;;;;;;;;;;;;;;;5.32;100.00;99855.53;5077832;28;19928;-83
2022/02/10 23:12:00;;;;;;;;;;;;;;;5.31;100.00;99855.91;5060622;28;20005;-84
2022/02/10 23:14:28;;;;;;;;;;;;;;;5.29;100.00;99861.84;5060088;28;19931;-83
2022/02/10 23:16:56;;;;;;;;;;;;;;;5.28;100.00;99843.63;5059717;28;19925;-84
2022/02/10 23:19:25;;;;;;;;;;;;;;;5.39;100.00;99866.75;5060292;28;19924;-84
2022/02/10 23:21:52;;;;;;;;;;;;;;;5.37;100.00;99869.09;5093851;28;20295;-83
2022/02/10 23:24:20;;;;;;;;;;;;;;;5.44;100.00;99871.19;5059689;28;20019;-84
2022/02/10 23:26:47;;;;;;;;;;;;;;;5.42;100.00;99882.63;5076480;28;19986;-84
2022/02/10 23:29:15;;;;;;;;;;;;;;;5.43;100.00;99886.22;5076621;28;19931;-84
2022/02/10 23:31:42;;;;;;;;;;;;;;;5.27;100.00;99883.56;5076238;28;19956;-84
2022/02/10 23:34:12;;;;;;;;;;;;;;;5.30;100.00;99893.91;5076360;28;20341;-84
2022/02/10 23:39:22;;;;;;;;;;;;;;;5.47;100.00;99904.50;5043314;28;19931;-84
2022/02/10 23:42:02;;;;;;;;;;;;;;;5.37;100.00;99902.38;5059148;28;19938;-84
2022/02/10 23:44:38;;;;;;;;;;;;;;;5.52;100.00;99903.41;5076281;28;20028;-83
2022/02/10 23:47:07;;;;;;;;;;;;;;;5.46;100.00;99897.38;5076590;28;19966;-84
2022/02/10 23:49:36;;;;;;;;;;;;;;;5.63;100.00;99902.41;5076949;28;19968;-84
2022/02/10 23:52:06;;;;;;;;;;;;;;;5.52;100.00;99904.22;5092904;28;19960;-84
2022/02/10 23:54:40;;;;;;;;;;;;;;;5.40;100.00;99907.16;5076901;28;19955;-84
2022/02/10 23:57:29;;;;;;;;;;;;;;;5.57;100.00;99920.50;5059189;28;19924;-84
